createdAt,value
2023-03-10T00:01:37.673Z,-1.61
2023-03-10T00:04:39.284Z,-1.62
2023-03-10T00:07:41.314Z,-1.64
2023-03-10T00:10:42.905Z,-1.64
2023-03-10T00:13:44.628Z,-1.66
2023-03-10T00:16:46.176Z,-1.64
2023-03-10T00:19:47.763Z,-1.65
2023-03-10T00:22:49.351Z,-1.66
2023-03-10T00:25:56.516Z,-1.65
2023-03-10T00:28:58.091Z,-1.67
2023-03-10T00:31:59.642Z,-1.68
2023-03-10T00:35:01.216Z,-1.69
2023-03-10T00:38:03.694Z,-1.70
2023-03-10T00:41:07.738Z,-1.69
2023-03-10T00:44:09.813Z,-1.71
2023-03-10T00:47:11.535Z,-1.70
2023-03-10T00:50:13.156Z,-1.68
2023-03-10T00:53:15.146Z,-1.68
2023-03-10T00:56:18.102Z,-1.69
2023-03-10T00:59:19.657Z,-1.69
2023-03-10T01:02:21.659Z,-1.70
2023-03-10T01:05:23.203Z,-1.69
2023-03-10T01:08:24.848Z,-1.70
2023-03-10T01:11:28.715Z,-1.71
2023-03-10T01:14:31.845Z,-1.72
2023-03-10T01:17:33.396Z,-1.72
2023-03-10T01:20:35.366Z,-1.72
2023-03-10T01:23:36.902Z,-1.73
2023-03-10T01:26:38.472Z,-1.74
2023-03-10T01:29:40.074Z,-1.73
2023-03-10T01:32:41.889Z,-1.75
2023-03-10T01:35:44.302Z,-1.74
2023-03-10T01:38:46.944Z,-1.74
2023-03-10T01:41:48.547Z,-1.72
2023-03-10T01:45:23.863Z,-1.72
2023-03-10T01:48:25.523Z,-1.72
2023-03-10T01:51:29.872Z,-1.74
2023-03-10T01:54:41.311Z,-1.72
2023-03-10T01:57:48.088Z,-1.73
2023-03-10T02:00:53.724Z,-1.72
2023-03-10T02:04:10.114Z,-1.70
2023-03-10T02:07:13.554Z,-1.69
2023-03-10T02:10:16.465Z,-1.71
2023-03-10T02:13:18.168Z,-1.71
2023-03-10T02:16:20.714Z,-1.73
2023-03-10T02:19:35.743Z,-1.73
2023-03-10T02:22:39.397Z,-1.74
2023-03-10T02:26:00.836Z,-1.75
2023-03-10T02:29:06.333Z,-1.75
2023-03-10T02:32:08.621Z,-1.76
2023-03-10T02:35:10.709Z,-1.75
2023-03-10T02:38:12.444Z,-1.75
2023-03-10T02:41:28.808Z,-1.76
2023-03-10T02:44:30.514Z,-1.76
2023-03-10T02:47:32.039Z,-1.76
2023-03-10T02:50:38.091Z,-1.77
2023-03-10T02:53:39.608Z,-1.75
2023-03-10T02:56:42.875Z,-1.76
2023-03-10T02:59:44.449Z,-1.76
2023-03-10T03:02:45.982Z,-1.77
2023-03-10T03:05:49.488Z,-1.78
2023-03-10T03:08:51.072Z,-1.77
2023-03-10T03:11:52.650Z,-1.79
2023-03-10T03:14:54.307Z,-1.78
2023-03-10T03:17:58.625Z,-1.80
2023-03-10T03:21:05.126Z,-1.79
2023-03-10T03:24:06.879Z,-1.79
2023-03-10T03:27:08.486Z,-1.79
2023-03-10T03:30:18.322Z,-1.77
2023-03-10T03:33:20.861Z,-1.77
2023-03-10T03:36:22.581Z,-1.77
2023-03-10T03:39:24.209Z,-1.79
2023-03-10T03:42:25.802Z,-1.80
2023-03-10T03:45:29.487Z,-1.79
2023-03-10T03:48:31.208Z,-1.79
2023-03-10T03:51:32.710Z,-1.81
2023-03-10T03:54:34.313Z,-1.80
2023-03-10T03:57:36.534Z,-1.79
2023-03-10T04:00:40.040Z,-1.78
2023-03-10T04:03:41.734Z,-1.78
2023-03-10T04:06:43.460Z,-1.79
2023-03-10T04:09:45.406Z,-1.79
2023-03-10T04:12:47.188Z,-1.79
2023-03-10T04:15:48.790Z,-1.78
2023-03-10T04:18:50.385Z,-1.79
2023-03-10T04:21:51.936Z,-1.78
2023-03-10T04:24:54.140Z,-1.76
2023-03-10T04:27:57.271Z,-1.73
2023-03-10T04:30:58.917Z,-1.73
2023-03-10T04:34:00.478Z,-1.71
2023-03-10T04:37:02.030Z,-1.70
2023-03-10T04:40:08.451Z,-1.70
2023-03-10T04:43:10.190Z,-1.72
2023-03-10T04:46:12.024Z,-1.73
2023-03-10T04:49:15.412Z,-1.71
2023-03-10T04:52:16.991Z,-1.70
2023-03-10T04:55:18.630Z,-1.71
2023-03-10T04:58:21.507Z,-1.74
2023-03-10T05:01:23.140Z,-1.75
2023-03-10T05:04:24.806Z,-1.75
2023-03-10T05:07:26.324Z,-1.75
2023-03-10T05:10:27.929Z,-1.75
2023-03-10T05:13:31.735Z,-1.74
2023-03-10T05:16:33.615Z,-1.72
2023-03-10T05:19:35.495Z,-1.71
2023-03-10T05:22:38.333Z,-1.70
2023-03-10T05:25:40.148Z,-1.72
2023-03-10T05:28:41.786Z,-1.71
2023-03-10T05:31:43.520Z,-1.70
2023-03-10T05:34:45.268Z,-1.69
2023-03-10T05:37:46.831Z,-1.70
2023-03-10T05:40:48.358Z,-1.74
2023-03-10T05:43:49.972Z,-1.76
2023-03-10T05:46:51.627Z,-1.77
2023-03-10T05:49:53.296Z,-1.77
2023-03-10T05:52:55.014Z,-1.76
2023-03-10T05:55:56.783Z,-1.77
2023-03-10T05:58:58.561Z,-1.77
2023-03-10T06:02:00.139Z,-1.76
2023-03-10T06:05:01.787Z,-1.77
2023-03-10T06:08:03.499Z,-1.76
2023-03-10T06:11:05.947Z,-1.74
2023-03-10T06:14:07.462Z,-1.73
2023-03-10T06:17:09.038Z,-1.73
2023-03-10T06:20:10.790Z,-1.73
2023-03-10T06:23:12.367Z,-1.74
2023-03-10T06:26:16.077Z,-1.75
2023-03-10T06:29:17.629Z,-1.73
2023-03-10T06:32:19.308Z,-1.72
2023-03-10T06:35:20.977Z,-1.69
2023-03-10T06:38:23.070Z,-1.67
2023-03-10T06:41:25.411Z,-1.68
2023-03-10T06:44:26.960Z,-1.67
2023-03-10T06:47:28.547Z,-1.65
2023-03-10T06:50:31.653Z,-1.64
2023-03-10T06:53:33.402Z,-1.65
2023-03-10T06:56:34.947Z,-1.65
2023-03-10T06:59:36.519Z,-1.64
2023-03-10T07:02:38.933Z,-1.66
2023-03-10T07:05:40.790Z,-1.65
2023-03-10T07:08:42.411Z,-1.66
2023-03-10T07:11:43.986Z,-1.65
2023-03-10T07:14:45.587Z,-1.65
2023-03-10T07:17:47.133Z,-1.66
2023-03-10T07:20:48.763Z,-1.67
2023-03-10T07:23:50.467Z,-1.67
2023-03-10T07:26:52.391Z,-1.67
2023-03-10T07:29:53.953Z,-1.66
2023-03-10T07:32:55.504Z,-1.63
2023-03-10T07:35:57.117Z,-1.63
2023-03-10T07:38:58.666Z,-1.62
2023-03-10T07:42:00.215Z,-1.62
2023-03-10T07:45:01.970Z,-1.62
2023-03-10T07:48:04.014Z,-1.63
2023-03-10T07:51:06.268Z,-1.61
2023-03-10T07:54:07.947Z,-1.61
2023-03-10T07:57:09.683Z,-1.60
2023-03-10T08:00:12.058Z,-1.61
2023-03-10T08:03:13.596Z,-1.64
2023-03-10T08:06:21.466Z,-1.61
2023-03-10T08:09:23.110Z,-1.30
2023-03-10T08:12:24.821Z,-1.19
2023-03-10T08:15:27.050Z,-1.23
2023-03-10T08:18:30.010Z,-1.30
2023-03-10T08:21:31.614Z,-1.35
2023-03-10T08:24:33.222Z,-1.41
2023-03-10T08:27:34.731Z,-1.45
2023-03-10T08:30:52.481Z,-1.48
2023-03-10T08:34:00.889Z,-1.54
2023-03-10T08:37:02.684Z,-1.55
2023-03-10T08:40:07.881Z,-1.57
2023-03-10T08:43:09.450Z,-1.58
2023-03-10T08:46:12.609Z,-1.61
2023-03-10T08:49:16.423Z,-1.60
2023-03-10T08:52:18.576Z,-1.61
2023-03-10T08:55:20.155Z,-1.63
2023-03-10T08:58:23.089Z,-1.64
2023-03-10T09:01:25.862Z,-1.65
2023-03-10T09:04:27.438Z,-1.66
2023-03-10T09:07:29.081Z,-1.65
2023-03-10T09:10:30.765Z,-1.65
2023-03-10T09:13:32.339Z,-1.65
2023-03-10T09:16:34.199Z,-1.66
2023-03-10T09:19:35.782Z,-1.67
2023-03-10T09:22:37.884Z,-1.67
2023-03-10T09:25:40.479Z,-1.66
2023-03-10T09:28:42.883Z,-1.66
2023-03-10T09:31:45.390Z,-1.65
2023-03-10T09:34:47.018Z,-1.64
2023-03-10T09:37:48.534Z,-1.61
2023-03-10T09:40:56.201Z,-1.59
2023-03-10T09:44:24.158Z,-1.57
2023-03-10T09:47:44.829Z,-1.55
2023-03-10T09:50:49.196Z,-1.53
2023-03-10T09:53:53.575Z,-1.51
2023-03-10T09:56:57.744Z,-1.49
2023-03-10T10:00:08.398Z,-1.50
2023-03-10T10:03:19.853Z,-1.50
2023-03-10T10:06:29.020Z,-1.54
2023-03-10T10:09:53.342Z,-1.56
2023-03-10T10:12:58.225Z,-1.59
2023-03-10T10:16:28.000Z,-1.57
2023-03-10T10:19:37.304Z,-1.54
2023-03-10T10:22:39.233Z,-1.51
2023-03-10T10:25:42.409Z,-1.50
2023-03-10T10:28:50.928Z,-1.22
2023-03-10T10:32:16.513Z,-0.75
2023-03-10T10:35:24.640Z,-0.71
2023-03-10T10:38:31.372Z,-0.75
2023-03-10T10:41:34.520Z,-0.82
2023-03-10T10:44:42.111Z,-0.87
2023-03-10T10:47:51.690Z,-0.92
2023-03-10T10:50:54.090Z,-0.96
2023-03-10T10:54:21.749Z,-0.98
2023-03-10T10:57:31.990Z,-1.00
2023-03-10T11:00:37.459Z,-1.00
2023-03-10T11:03:40.295Z,-1.02
2023-03-10T11:06:41.944Z,-1.01
2023-03-10T11:09:43.868Z,-1.02
2023-03-10T11:12:54.623Z,-1.05
2023-03-10T11:16:22.143Z,-1.07
2023-03-10T11:19:49.896Z,-1.07
2023-03-10T11:23:16.009Z,-1.07
2023-03-10T11:26:20.447Z,-1.06
2023-03-10T11:29:57.665Z,-1.03
2023-03-10T11:32:59.211Z,-1.02
2023-03-10T11:36:27.094Z,-1.02
2023-03-10T11:39:28.811Z,-1.03
2023-03-10T11:42:39.110Z,-1.01
2023-03-10T11:45:53.541Z,-1.00
2023-03-10T11:49:11.235Z,-0.97
2023-03-10T11:52:19.937Z,-0.96
2023-03-10T11:55:22.004Z,-0.95
2023-03-10T11:58:35.022Z,-0.92
2023-03-10T12:02:07.388Z,-0.92
2023-03-10T12:05:24.305Z,-0.93
2023-03-10T12:08:32.279Z,-0.95
2023-03-10T12:11:36.238Z,-0.95
2023-03-10T12:14:38.074Z,-0.95
2023-03-10T12:17:40.942Z,-0.95
2023-03-10T12:20:42.493Z,-0.95
2023-03-10T12:23:46.549Z,-0.95
2023-03-10T12:26:49.918Z,-0.95
2023-03-10T12:29:51.494Z,-0.95
2023-03-10T12:32:53.157Z,-0.94
2023-03-10T12:36:03.431Z,-0.94
2023-03-10T12:39:25.978Z,-0.94
2023-03-10T12:42:29.916Z,-0.92
2023-03-10T12:45:33.300Z,-0.94
2023-03-10T12:48:40.576Z,-0.93
2023-03-10T12:51:47.366Z,-0.94
2023-03-10T12:55:02.842Z,-0.92
2023-03-10T12:58:14.966Z,-0.93
2023-03-10T13:01:24.407Z,-0.91
2023-03-10T13:04:27.707Z,-0.91
2023-03-10T13:07:30.789Z,-0.89
2023-03-10T13:10:35.412Z,-0.86
2023-03-10T13:13:37.862Z,-0.84
2023-03-10T13:16:40.085Z,-0.81
2023-03-10T13:19:41.704Z,-0.79
2023-03-10T13:22:57.797Z,-0.78
2023-03-10T13:26:07.528Z,-0.67
2023-03-10T13:29:17.618Z,-0.30
2023-03-10T13:32:19.620Z,-0.16
2023-03-10T13:35:42.786Z,-0.21
2023-03-10T13:38:44.363Z,-0.27
2023-03-10T13:41:48.071Z,-0.33
2023-03-10T13:44:50.604Z,-0.40
2023-03-10T13:47:52.581Z,-0.45
2023-03-10T13:51:31.953Z,-0.47
2023-03-10T13:54:39.362Z,-0.52
2023-03-10T13:57:42.432Z,-0.55
2023-03-10T14:00:50.490Z,-0.55
2023-03-10T14:04:06.858Z,-0.55
2023-03-10T14:07:11.823Z,-0.55
2023-03-10T14:10:19.122Z,-0.53
2023-03-10T14:13:40.274Z,-0.50
2023-03-10T14:16:44.963Z,-0.51
2023-03-10T14:19:49.154Z,-0.53
2023-03-10T14:22:50.735Z,-0.55
2023-03-10T14:25:54.889Z,-0.57
2023-03-10T14:28:56.641Z,-0.59
2023-03-10T14:31:58.427Z,-0.58
2023-03-10T14:34:59.982Z,-0.56
2023-03-10T14:38:01.600Z,-0.52
2023-03-10T14:41:04.557Z,-0.50
2023-03-10T14:44:06.222Z,-0.50
2023-03-10T14:47:09.313Z,-0.51
2023-03-10T14:50:16.613Z,-0.51
2023-03-10T14:53:20.683Z,-0.51
2023-03-10T14:56:22.904Z,-0.49
2023-03-10T14:59:27.813Z,-0.48
2023-03-10T15:02:30.671Z,-0.46
2023-03-10T15:05:47.273Z,-0.44
2023-03-10T15:08:49.881Z,-0.42
2023-03-10T15:11:51.486Z,-0.41
2023-03-10T15:14:54.490Z,-0.38
2023-03-10T15:17:56.107Z,-0.36
2023-03-10T15:21:00.304Z,-0.35
2023-03-10T15:24:07.408Z,-0.35
2023-03-10T15:27:11.877Z,-0.36
2023-03-10T15:30:25.553Z,-0.38
2023-03-10T15:33:27.134Z,-0.42
2023-03-10T15:36:28.647Z,-0.43
2023-03-10T15:39:32.618Z,-0.47
2023-03-10T15:42:34.996Z,-0.51
2023-03-10T15:45:40.954Z,-0.54
2023-03-10T15:48:42.556Z,-0.57
2023-03-10T15:51:44.078Z,-0.60
2023-03-10T15:54:45.627Z,-0.63
2023-03-10T15:57:50.521Z,-0.68
2023-03-10T16:00:52.100Z,-0.70
2023-03-10T16:03:53.644Z,-0.72
2023-03-10T16:06:55.203Z,-0.72
2023-03-10T16:09:56.734Z,-0.74
2023-03-10T16:12:59.709Z,-0.76
2023-03-10T16:16:09.092Z,-0.81
2023-03-10T16:19:10.753Z,-0.81
2023-03-10T16:22:12.363Z,-0.83
2023-03-10T16:25:16.147Z,-0.84
2023-03-10T16:28:17.655Z,-0.85
2023-03-10T16:31:22.624Z,-0.86
2023-03-10T16:34:24.215Z,-0.87
2023-03-10T16:37:27.779Z,-0.89
2023-03-10T16:40:29.365Z,-0.89
2023-03-10T16:43:32.727Z,-0.90
2023-03-10T16:46:34.467Z,-0.91
2023-03-10T16:49:36.493Z,-0.93
2023-03-10T16:52:42.423Z,-0.87
2023-03-10T16:55:44.181Z,-0.89
2023-03-10T16:58:45.830Z,-0.90
2023-03-10T17:01:49.077Z,-0.89
2023-03-10T17:04:50.694Z,-0.91
2023-03-10T17:07:55.866Z,-0.92
2023-03-10T17:10:57.851Z,-0.93
2023-03-10T17:14:02.444Z,-0.93
2023-03-10T17:17:06.547Z,-0.95
2023-03-10T17:20:09.728Z,-0.94
2023-03-10T17:23:11.603Z,-0.94
2023-03-10T17:26:13.996Z,-0.94
2023-03-10T17:29:15.674Z,-0.93
2023-03-10T17:32:17.288Z,-0.94
2023-03-10T17:35:19.002Z,-0.93
2023-03-10T17:38:20.590Z,-0.94
2023-03-10T17:41:22.564Z,-0.95
2023-03-10T17:44:24.329Z,-0.96
2023-03-10T17:47:26.096Z,-0.96
2023-03-10T17:50:27.658Z,-0.94
2023-03-10T17:53:30.131Z,-0.94
2023-03-10T17:56:31.787Z,-0.95
2023-03-10T17:59:33.561Z,-0.93
2023-03-10T18:02:35.271Z,-0.95
2023-03-10T18:05:44.459Z,-0.97
2023-03-10T18:08:46.660Z,-0.96
2023-03-10T18:11:48.335Z,-0.99
2023-03-10T18:14:49.943Z,-0.99
2023-03-10T18:17:51.485Z,-1.01
2023-03-10T18:20:53.115Z,-1.03
2023-03-10T18:23:55.235Z,-1.03
2023-03-10T18:26:57.022Z,-1.04
2023-03-10T18:29:59.351Z,-1.07
2023-03-10T18:33:00.907Z,-1.06
2023-03-10T18:36:05.659Z,-1.03
2023-03-10T18:39:07.888Z,-1.02
2023-03-10T18:42:09.536Z,-1.02
2023-03-10T18:45:11.399Z,-1.01
2023-03-10T18:48:13.003Z,-0.93
2023-03-10T18:51:14.933Z,-0.87
2023-03-10T18:54:16.489Z,-0.86
2023-03-10T18:57:18.049Z,-0.85
2023-03-10T19:00:20.493Z,-0.85
2023-03-10T19:03:22.405Z,-0.85
2023-03-10T19:06:28.885Z,-0.84
2023-03-10T19:09:30.453Z,-0.83
2023-03-10T19:12:32.299Z,-0.81
2023-03-10T19:15:34.108Z,-0.78
2023-03-10T19:18:36.129Z,-0.78
2023-03-10T19:21:38.249Z,-0.84
2023-03-10T19:24:39.858Z,-0.87
2023-03-10T19:27:41.424Z,-0.89
2023-03-10T19:30:43.612Z,-0.90
2023-03-10T19:33:45.577Z,-0.90
2023-03-10T19:36:47.136Z,-0.93
2023-03-10T19:39:49.035Z,-0.98
2023-03-10T19:42:50.677Z,-1.03
2023-03-10T19:45:52.318Z,-1.06
2023-03-10T19:48:54.256Z,-1.07
2023-03-10T19:51:55.839Z,-1.09
2023-03-10T19:54:57.496Z,-1.09
2023-03-10T19:57:59.073Z,-1.09
2023-03-10T20:01:00.771Z,-1.07
2023-03-10T20:04:03.456Z,-1.06
2023-03-10T20:07:05.108Z,-1.03
2023-03-10T20:10:08.169Z,-1.02
2023-03-10T20:13:09.752Z,-1.00
2023-03-10T20:16:15.858Z,-0.96
2023-03-10T20:19:19.508Z,-0.94
2023-03-10T20:22:21.044Z,-0.94
2023-03-10T20:25:24.551Z,-0.91
2023-03-10T20:28:26.159Z,-0.89
2023-03-10T20:31:30.573Z,-0.87
2023-03-10T20:34:32.269Z,-0.86
2023-03-10T20:37:35.810Z,-0.87
2023-03-10T20:40:38.562Z,-0.89
2023-03-10T20:43:41.024Z,-0.92
2023-03-10T20:46:43.820Z,-0.93
2023-03-10T20:49:46.257Z,-0.94
2023-03-10T20:52:48.827Z,-0.93
2023-03-10T20:55:50.647Z,-0.93
2023-03-10T20:58:52.202Z,-0.93
2023-03-10T21:01:53.874Z,-0.94
2023-03-10T21:04:55.988Z,-0.90
2023-03-10T21:07:58.430Z,-0.89
2023-03-10T21:11:00.055Z,-0.87
2023-03-10T21:14:01.722Z,-0.86
2023-03-10T21:17:04.002Z,-0.84
2023-03-10T21:20:09.208Z,-0.81
2023-03-10T21:23:10.894Z,-0.81
2023-03-10T21:26:21.469Z,-0.79
2023-03-10T21:29:23.034Z,-0.79
2023-03-10T21:32:26.775Z,-0.81
2023-03-10T21:35:31.998Z,-0.81
2023-03-10T21:38:36.612Z,-0.81
2023-03-10T21:41:38.843Z,-0.83
2023-03-10T21:44:40.757Z,-0.82
2023-03-10T21:47:42.804Z,-0.81
2023-03-10T21:50:44.373Z,-0.82
2023-03-10T21:53:46.847Z,-0.82
2023-03-10T21:56:48.433Z,-0.82
2023-03-10T21:59:50.732Z,-0.83
2023-03-10T22:02:53.204Z,-0.85
2023-03-10T22:05:54.765Z,-0.86
2023-03-10T22:08:56.354Z,-0.87
2023-03-10T22:11:58.059Z,-0.87
2023-03-10T22:14:59.731Z,-0.88
2023-03-10T22:18:01.250Z,-0.90
2023-03-10T22:21:02.925Z,-0.92
2023-03-10T22:24:04.797Z,-0.93
2023-03-10T22:27:06.672Z,-0.94
2023-03-10T22:30:09.583Z,-0.94
2023-03-10T22:33:11.126Z,-0.93
2023-03-10T22:36:13.027Z,-0.92
2023-03-10T22:39:14.572Z,-0.91
2023-03-10T22:42:16.444Z,-0.94
2023-03-10T22:45:23.931Z,-0.98
2023-03-10T22:48:25.458Z,-1.00
2023-03-10T22:51:27.082Z,-1.04
2023-03-10T22:54:28.629Z,-1.04
2023-03-10T22:57:30.187Z,-1.06
2023-03-10T23:00:32.864Z,-1.06
2023-03-10T23:03:35.659Z,-1.06
2023-03-10T23:06:37.220Z,-1.04
2023-03-10T23:09:38.869Z,-1.06
2023-03-10T23:12:41.042Z,-1.07
2023-03-10T23:15:43.226Z,-1.02
2023-03-10T23:18:44.769Z,-1.01
2023-03-10T23:21:46.362Z,-1.01
2023-03-10T23:24:47.913Z,-1.00
2023-03-10T23:27:49.527Z,-1.01
2023-03-10T23:30:51.494Z,-1.01
2023-03-10T23:33:53.072Z,-1.01
2023-03-10T23:36:57.319Z,-1.03
2023-03-10T23:39:58.880Z,-1.05
2023-03-10T23:43:02.826Z,-1.07
2023-03-10T23:46:06.191Z,-1.08
2023-03-10T23:49:07.974Z,-1.10
2023-03-10T23:52:09.484Z,-1.13
2023-03-10T23:55:20.735Z,-1.14
2023-03-10T23:58:22.934Z,-1.17
